sensor_id;sensor_type;location;lat;lon;timestamp;P1;durP1;ratioP1;P2;durP2;ratioP2
44558;SDS011;30270;40.238;18.256;2022-10-13T00:01:11;16.60;;;7.07;;
44558;SDS011;30270;40.238;18.256;2022-10-13T00:03:42;12.02;;;7.88;;
44558;SDS011;30270;40.238;18.256;2022-10-13T00:06:22;17.98;;;8.85;;
44558;SDS011;30270;40.238;18.256;2022-10-13T00:08:52;12.55;;;8.40;;
44558;SDS011;30270;40.238;18.256;2022-10-13T00:11:21;11.88;;;8.23;;
44558;SDS011;30270;40.238;18.256;2022-10-13T00:13:54;11.52;;;7.40;;
44558;SDS011;30270;40.238;18.256;2022-10-13T00:16:24;14.15;;;7.72;;
44558;SDS011;30270;40.238;18.256;2022-10-13T00:18:52;11.00;;;7.78;;
44558;SDS011;30270;40.238;18.256;2022-10-13T00:21:21;11.88;;;7.45;;
44558;SDS011;30270;40.238;18.256;2022-10-13T00:23:51;11.57;;;9.10;;
44558;SDS011;30270;40.238;18.256;2022-10-13T00:26:21;9.52;;;7.20;;
44558;SDS011;30270;40.238;18.256;2022-10-13T00:28:50;9.00;;;6.55;;
44558;SDS011;30270;40.238;18.256;2022-10-13T00:31:28;10.07;;;6.40;;
44558;SDS011;30270;40.238;18.256;2022-10-13T00:33:58;10.13;;;7.18;;
44558;SDS011;30270;40.238;18.256;2022-10-13T00:36:27;11.20;;;6.80;;
44558;SDS011;30270;40.238;18.256;2022-10-13T00:38:56;9.02;;;7.10;;
44558;SDS011;30270;40.238;18.256;2022-10-13T00:41:24;10.85;;;6.68;;
44558;SDS011;30270;40.238;18.256;2022-10-13T00:44:02;9.38;;;5.85;;
44558;SDS011;30270;40.238;18.256;2022-10-13T00:46:35;8.90;;;5.75;;
44558;SDS011;30270;40.238;18.256;2022-10-13T00:51:35;11.52;;;7.00;;
44558;SDS011;30270;40.238;18.256;2022-10-13T00:54:07;10.63;;;6.28;;
44558;SDS011;30270;40.238;18.256;2022-10-13T00:56:37;8.82;;;6.25;;
44558;SDS011;30270;40.238;18.256;2022-10-13T00:59:08;8.32;;;6.03;;
44558;SDS011;30270;40.238;18.256;2022-10-13T01:01:41;9.90;;;6.15;;
44558;SDS011;30270;40.238;18.256;2022-10-13T01:04:08;8.00;;;5.57;;
44558;SDS011;30270;40.238;18.256;2022-10-13T01:06:36;7.90;;;5.32;;
44558;SDS011;30270;40.238;18.256;2022-10-13T01:09:06;8.65;;;6.28;;
44558;SDS011;30270;40.238;18.256;2022-10-13T01:18:50;8.02;;;5.20;;
44558;SDS011;30270;40.238;18.256;2022-10-13T01:38:19;9.10;;;5.40;;
44558;SDS011;30270;40.238;18.256;2022-10-13T01:41:28;8.05;;;5.88;;
44558;SDS011;30270;40.238;18.256;2022-10-13T01:47:00;9.20;;;5.80;;
44558;SDS011;30270;40.238;18.256;2022-10-13T01:49:30;9.27;;;5.38;;
44558;SDS011;30270;40.238;18.256;2022-10-13T01:52:02;8.32;;;5.18;;
44558;SDS011;30270;40.238;18.256;2022-10-13T01:54:33;7.78;;;5.13;;
44558;SDS011;30270;40.238;18.256;2022-10-13T01:57:01;7.30;;;4.88;;
44558;SDS011;30270;40.238;18.256;2022-10-13T01:59:30;6.68;;;4.68;;
44558;SDS011;30270;40.238;18.256;2022-10-13T02:02:08;7.35;;;5.38;;
44558;SDS011;30270;40.238;18.256;2022-10-13T02:10:12;8.45;;;5.78;;
44558;SDS011;30270;40.238;18.256;2022-10-13T02:13:03;8.00;;;5.22;;
44558;SDS011;30270;40.238;18.256;2022-10-13T02:15:36;6.65;;;4.68;;
44558;SDS011;30270;40.238;18.256;2022-10-13T02:18:12;8.35;;;4.93;;
44558;SDS011;30270;40.238;18.256;2022-10-13T02:20:41;6.40;;;4.57;;
44558;SDS011;30270;40.238;18.256;2022-10-13T02:23:13;6.38;;;4.47;;
44558;SDS011;30270;40.238;18.256;2022-10-13T02:25:42;6.90;;;5.22;;
44558;SDS011;30270;40.238;18.256;2022-10-13T02:28:11;6.22;;;4.50;;
44558;SDS011;30270;40.238;18.256;2022-10-13T02:30:43;7.45;;;5.10;;
44558;SDS011;30270;40.238;18.256;2022-10-13T02:33:12;7.30;;;5.47;;
44558;SDS011;30270;40.238;18.256;2022-10-13T02:35:41;7.30;;;5.28;;
44558;SDS011;30270;40.238;18.256;2022-10-13T02:38:09;8.27;;;5.28;;
44558;SDS011;30270;40.238;18.256;2022-10-13T02:40:37;10.35;;;5.78;;
44558;SDS011;30270;40.238;18.256;2022-10-13T02:43:05;7.30;;;5.25;;
44558;SDS011;30270;40.238;18.256;2022-10-13T02:45:33;6.93;;;4.70;;
44558;SDS011;30270;40.238;18.256;2022-10-13T02:48:00;7.60;;;5.40;;
44558;SDS011;30270;40.238;18.256;2022-10-13T02:50:28;6.97;;;4.13;;
44558;SDS011;30270;40.238;18.256;2022-10-13T02:52:57;8.00;;;5.43;;
44558;SDS011;30270;40.238;18.256;2022-10-13T02:55:25;7.82;;;4.82;;
44558;SDS011;30270;40.238;18.256;2022-10-13T02:57:55;7.75;;;5.80;;
44558;SDS011;30270;40.238;18.256;2022-10-13T03:00:23;7.47;;;6.00;;
44558;SDS011;30270;40.238;18.256;2022-10-13T03:02:51;8.45;;;5.35;;
44558;SDS011;30270;40.238;18.256;2022-10-13T03:05:19;6.53;;;5.38;;
44558;SDS011;30270;40.238;18.256;2022-10-13T03:07:47;8.05;;;5.28;;
44558;SDS011;30270;40.238;18.256;2022-10-13T03:10:15;9.32;;;5.45;;
44558;SDS011;30270;40.238;18.256;2022-10-13T03:12:43;8.77;;;5.20;;
44558;SDS011;30270;40.238;18.256;2022-10-13T03:15:10;8.77;;;5.55;;
44558;SDS011;30270;40.238;18.256;2022-10-13T03:17:38;9.55;;;5.45;;
44558;SDS011;30270;40.238;18.256;2022-10-13T03:20:06;10.68;;;6.53;;
44558;SDS011;30270;40.238;18.256;2022-10-13T03:22:34;8.35;;;5.10;;
44558;SDS011;30270;40.238;18.256;2022-10-13T03:25:02;7.70;;;5.18;;
44558;SDS011;30270;40.238;18.256;2022-10-13T03:27:31;8.93;;;5.85;;
44558;SDS011;30270;40.238;18.256;2022-10-13T03:29:58;9.68;;;6.57;;
44558;SDS011;30270;40.238;18.256;2022-10-13T03:32:28;6.97;;;4.75;;
44558;SDS011;30270;40.238;18.256;2022-10-13T03:34:57;7.05;;;5.25;;
44558;SDS011;30270;40.238;18.256;2022-10-13T03:37:25;9.75;;;5.13;;
44558;SDS011;30270;40.238;18.256;2022-10-13T03:39:56;8.65;;;5.63;;
44558;SDS011;30270;40.238;18.256;2022-10-13T03:42:24;9.05;;;6.72;;
44558;SDS011;30270;40.238;18.256;2022-10-13T03:44:51;7.40;;;4.95;;
44558;SDS011;30270;40.238;18.256;2022-10-13T03:47:22;9.35;;;5.90;;
44558;SDS011;30270;40.238;18.256;2022-10-13T03:49:50;8.95;;;5.20;;
44558;SDS011;30270;40.238;18.256;2022-10-13T03:52:20;9.50;;;5.20;;
44558;SDS011;30270;40.238;18.256;2022-10-13T03:54:49;7.63;;;5.93;;
44558;SDS011;30270;40.238;18.256;2022-10-13T03:57:17;7.50;;;4.97;;
44558;SDS011;30270;40.238;18.256;2022-10-13T03:59:44;8.90;;;6.25;;
44558;SDS011;30270;40.238;18.256;2022-10-13T04:02:12;7.38;;;5.25;;
44558;SDS011;30270;40.238;18.256;2022-10-13T04:04:40;7.05;;;5.15;;
44558;SDS011;30270;40.238;18.256;2022-10-13T04:07:07;9.70;;;6.53;;
44558;SDS011;30270;40.238;18.256;2022-10-13T04:09:35;10.10;;;7.30;;
44558;SDS011;30270;40.238;18.256;2022-10-13T04:12:03;10.93;;;7.38;;
44558;SDS011;30270;40.238;18.256;2022-10-13T04:14:32;10.10;;;6.47;;
44558;SDS011;30270;40.238;18.256;2022-10-13T04:17:06;11.88;;;5.82;;
44558;SDS011;30270;40.238;18.256;2022-10-13T04:19:34;8.50;;;5.72;;
44558;SDS011;30270;40.238;18.256;2022-10-13T04:22:04;10.68;;;7.45;;
44558;SDS011;30270;40.238;18.256;2022-10-13T04:24:32;9.05;;;6.05;;
44558;SDS011;30270;40.238;18.256;2022-10-13T04:27:00;9.10;;;6.65;;
44558;SDS011;30270;40.238;18.256;2022-10-13T04:29:27;8.98;;;5.95;;
44558;SDS011;30270;40.238;18.256;2022-10-13T04:31:55;7.20;;;5.57;;
44558;SDS011;30270;40.238;18.256;2022-10-13T04:34:25;8.45;;;5.72;;
44558;SDS011;30270;40.238;18.256;2022-10-13T04:36:53;11.02;;;7.07;;
44558;SDS011;30270;40.238;18.256;2022-10-13T04:39:21;9.32;;;5.80;;
44558;SDS011;30270;40.238;18.256;2022-10-13T04:41:49;10.55;;;6.20;;
44558;SDS011;30270;40.238;18.256;2022-10-13T04:44:17;8.35;;;6.00;;
44558;SDS011;30270;40.238;18.256;2022-10-13T04:46:45;8.38;;;6.45;;
44558;SDS011;30270;40.238;18.256;2022-10-13T04:49:13;12.00;;;6.20;;
44558;SDS011;30270;40.238;18.256;2022-10-13T04:51:42;9.63;;;7.47;;
44558;SDS011;30270;40.238;18.256;2022-10-13T04:54:09;9.77;;;6.72;;
44558;SDS011;30270;40.238;18.256;2022-10-13T04:56:37;9.57;;;6.45;;
44558;SDS011;30270;40.238;18.256;2022-10-13T04:59:05;12.88;;;7.32;;
44558;SDS011;30270;40.238;18.256;2022-10-13T05:01:33;8.68;;;6.05;;
44558;SDS011;30270;40.238;18.256;2022-10-13T05:04:04;10.18;;;7.07;;
44558;SDS011;30270;40.238;18.256;2022-10-13T05:06:35;12.45;;;8.50;;
44558;SDS011;30270;40.238;18.256;2022-10-13T05:09:14;12.07;;;7.07;;
44558;SDS011;30270;40.238;18.256;2022-10-13T05:11:42;9.77;;;6.47;;
44558;SDS011;30270;40.238;18.256;2022-10-13T05:14:09;9.27;;;6.00;;
44558;SDS011;30270;40.238;18.256;2022-10-13T05:16:38;7.72;;;5.82;;
44558;SDS011;30270;40.238;18.256;2022-10-13T05:19:05;10.15;;;7.57;;
44558;SDS011;30270;40.238;18.256;2022-10-13T05:21:34;10.15;;;6.40;;
44558;SDS011;30270;40.238;18.256;2022-10-13T05:24:02;10.40;;;6.57;;
44558;SDS011;30270;40.238;18.256;2022-10-13T05:26:34;10.77;;;7.40;;
44558;SDS011;30270;40.238;18.256;2022-10-13T05:29:02;10.68;;;7.38;;
44558;SDS011;30270;40.238;18.256;2022-10-13T05:31:30;9.38;;;7.18;;
44558;SDS011;30270;40.238;18.256;2022-10-13T05:33:59;10.75;;;7.38;;
44558;SDS011;30270;40.238;18.256;2022-10-13T05:36:28;11.32;;;7.15;;
44558;SDS011;30270;40.238;18.256;2022-10-13T05:38:57;9.65;;;6.43;;
44558;SDS011;30270;40.238;18.256;2022-10-13T05:41:27;9.77;;;8.38;;
44558;SDS011;30270;40.238;18.256;2022-10-13T05:43:57;10.05;;;7.07;;
44558;SDS011;30270;40.238;18.256;2022-10-13T05:46:29;13.63;;;7.65;;
44558;SDS011;30270;40.238;18.256;2022-10-13T05:48:57;11.13;;;8.07;;
44558;SDS011;30270;40.238;18.256;2022-10-13T05:51:26;13.20;;;8.68;;
44558;SDS011;30270;40.238;18.256;2022-10-13T05:54:03;11.15;;;7.68;;
44558;SDS011;30270;40.238;18.256;2022-10-13T05:56:45;13.70;;;7.25;;
44558;SDS011;30270;40.238;18.256;2022-10-13T05:59:25;15.02;;;6.47;;
44558;SDS011;30270;40.238;18.256;2022-10-13T06:01:54;10.77;;;6.55;;
44558;SDS011;30270;40.238;18.256;2022-10-13T06:04:24;10.55;;;6.72;;
44558;SDS011;30270;40.238;18.256;2022-10-13T06:06:57;8.88;;;6.20;;
44558;SDS011;30270;40.238;18.256;2022-10-13T06:09:26;12.70;;;7.20;;
44558;SDS011;30270;40.238;18.256;2022-10-13T06:12:04;9.57;;;6.55;;
44558;SDS011;30270;40.238;18.256;2022-10-13T06:14:32;11.00;;;6.28;;
44558;SDS011;30270;40.238;18.256;2022-10-13T06:17:04;9.75;;;6.22;;
44558;SDS011;30270;40.238;18.256;2022-10-13T06:19:32;12.45;;;6.78;;
44558;SDS011;30270;40.238;18.256;2022-10-13T06:22:05;11.05;;;6.93;;
44558;SDS011;30270;40.238;18.256;2022-10-13T06:24:34;14.95;;;8.13;;
44558;SDS011;30270;40.238;18.256;2022-10-13T06:27:03;11.15;;;8.05;;
44558;SDS011;30270;40.238;18.256;2022-10-13T06:29:30;11.23;;;7.15;;
44558;SDS011;30270;40.238;18.256;2022-10-13T06:31:59;13.38;;;7.28;;
44558;SDS011;30270;40.238;18.256;2022-10-13T06:34:27;12.00;;;8.93;;
44558;SDS011;30270;40.238;18.256;2022-10-13T06:36:54;11.63;;;7.80;;
44558;SDS011;30270;40.238;18.256;2022-10-13T06:39:22;12.40;;;7.10;;
44558;SDS011;30270;40.238;18.256;2022-10-13T06:41:50;11.98;;;7.28;;
44558;SDS011;30270;40.238;18.256;2022-10-13T06:44:18;10.93;;;7.40;;
44558;SDS011;30270;40.238;18.256;2022-10-13T06:46:46;9.98;;;6.70;;
44558;SDS011;30270;40.238;18.256;2022-10-13T06:49:14;8.43;;;6.68;;
44558;SDS011;30270;40.238;18.256;2022-10-13T06:51:41;9.13;;;5.95;;
44558;SDS011;30270;40.238;18.256;2022-10-13T06:54:09;11.75;;;7.25;;
44558;SDS011;30270;40.238;18.256;2022-10-13T06:56:36;12.10;;;7.65;;
44558;SDS011;30270;40.238;18.256;2022-10-13T06:59:09;9.15;;;6.95;;
44558;SDS011;30270;40.238;18.256;2022-10-13T07:01:37;10.50;;;6.20;;
44558;SDS011;30270;40.238;18.256;2022-10-13T07:04:11;12.52;;;6.32;;
44558;SDS011;30270;40.238;18.256;2022-10-13T07:06:39;10.25;;;6.53;;
44558;SDS011;30270;40.238;18.256;2022-10-13T07:09:07;8.35;;;5.75;;
44558;SDS011;30270;40.238;18.256;2022-10-13T07:11:35;7.90;;;5.50;;
44558;SDS011;30270;40.238;18.256;2022-10-13T07:14:02;7.97;;;5.38;;
44558;SDS011;30270;40.238;18.256;2022-10-13T07:16:30;9.07;;;5.35;;
44558;SDS011;30270;40.238;18.256;2022-10-13T07:19:00;9.07;;;5.68;;
44558;SDS011;30270;40.238;18.256;2022-10-13T07:21:29;9.20;;;4.85;;
44558;SDS011;30270;40.238;18.256;2022-10-13T07:23:57;7.80;;;5.95;;
44558;SDS011;30270;40.238;18.256;2022-10-13T07:26:26;8.77;;;5.47;;
44558;SDS011;30270;40.238;18.256;2022-10-13T07:28:54;13.05;;;5.85;;
44558;SDS011;30270;40.238;18.256;2022-10-13T07:31:22;9.65;;;4.43;;
44558;SDS011;30270;40.238;18.256;2022-10-13T07:33:50;8.85;;;5.90;;
44558;SDS011;30270;40.238;18.256;2022-10-13T07:36:21;10.68;;;6.57;;
44558;SDS011;30270;40.238;18.256;2022-10-13T07:38:51;9.13;;;5.10;;
44558;SDS011;30270;40.238;18.256;2022-10-13T07:41:19;8.75;;;5.82;;
44558;SDS011;30270;40.238;18.256;2022-10-13T07:43:47;8.52;;;5.03;;
44558;SDS011;30270;40.238;18.256;2022-10-13T07:46:15;6.45;;;4.85;;
44558;SDS011;30270;40.238;18.256;2022-10-13T07:48:42;7.53;;;5.05;;
44558;SDS011;30270;40.238;18.256;2022-10-13T07:51:11;11.02;;;7.13;;
44558;SDS011;30270;40.238;18.256;2022-10-13T07:53:40;11.02;;;8.18;;
44558;SDS011;30270;40.238;18.256;2022-10-13T07:56:10;12.77;;;7.80;;
44558;SDS011;30270;40.238;18.256;2022-10-13T07:58:40;11.93;;;7.63;;
44558;SDS011;30270;40.238;18.256;2022-10-13T08:01:10;10.07;;;7.20;;
44558;SDS011;30270;40.238;18.256;2022-10-13T08:03:38;9.48;;;6.47;;
44558;SDS011;30270;40.238;18.256;2022-10-13T08:06:07;6.15;;;4.65;;
44558;SDS011;30270;40.238;18.256;2022-10-13T08:08:36;6.72;;;4.95;;
44558;SDS011;30270;40.238;18.256;2022-10-13T08:11:05;7.45;;;4.70;;
44558;SDS011;30270;40.238;18.256;2022-10-13T08:13:38;8.60;;;4.57;;
44558;SDS011;30270;40.238;18.256;2022-10-13T08:16:11;10.82;;;8.30;;
44558;SDS011;30270;40.238;18.256;2022-10-13T08:18:39;14.18;;;9.40;;
44558;SDS011;30270;40.238;18.256;2022-10-13T08:21:08;13.13;;;8.32;;
44558;SDS011;30270;40.238;18.256;2022-10-13T08:23:58;12.43;;;6.95;;
44558;SDS011;30270;40.238;18.256;2022-10-13T08:26:26;10.45;;;7.45;;
44558;SDS011;30270;40.238;18.256;2022-10-13T08:28:55;9.15;;;6.47;;
44558;SDS011;30270;40.238;18.256;2022-10-13T08:31:29;8.57;;;6.93;;
44558;SDS011;30270;40.238;18.256;2022-10-13T08:33:57;8.27;;;6.28;;
44558;SDS011;30270;40.238;18.256;2022-10-13T08:36:25;7.97;;;5.55;;
44558;SDS011;30270;40.238;18.256;2022-10-13T08:38:52;7.80;;;5.47;;
44558;SDS011;30270;40.238;18.256;2022-10-13T08:41:39;9.00;;;5.57;;
44558;SDS011;30270;40.238;18.256;2022-10-13T08:44:18;6.68;;;4.40;;
44558;SDS011;30270;40.238;18.256;2022-10-13T08:50:19;6.70;;;5.32;;
44558;SDS011;30270;40.238;18.256;2022-10-13T08:55:24;10.45;;;5.55;;
44558;SDS011;30270;40.238;18.256;2022-10-13T08:58:32;7.88;;;5.05;;
44558;SDS011;30270;40.238;18.256;2022-10-13T09:01:11;8.15;;;4.65;;
44558;SDS011;30270;40.238;18.256;2022-10-13T09:03:56;8.25;;;4.90;;
44558;SDS011;30270;40.238;18.256;2022-10-13T09:06:35;8.80;;;5.25;;
44558;SDS011;30270;40.238;18.256;2022-10-13T09:09:12;9.27;;;4.75;;
44558;SDS011;30270;40.238;18.256;2022-10-13T09:11:44;8.68;;;5.10;;
44558;SDS011;30270;40.238;18.256;2022-10-13T09:14:23;7.40;;;5.13;;
44558;SDS011;30270;40.238;18.256;2022-10-13T09:16:55;7.05;;;4.72;;
44558;SDS011;30270;40.238;18.256;2022-10-13T09:19:38;7.78;;;5.25;;
44558;SDS011;30270;40.238;18.256;2022-10-13T09:22:14;7.45;;;5.47;;
44558;SDS011;30270;40.238;18.256;2022-10-13T09:24:45;7.05;;;4.30;;
44558;SDS011;30270;40.238;18.256;2022-10-13T09:27:14;5.97;;;4.93;;
44558;SDS011;30270;40.238;18.256;2022-10-13T09:29:44;7.32;;;4.15;;
44558;SDS011;30270;40.238;18.256;2022-10-13T09:32:20;8.15;;;5.80;;
44558;SDS011;30270;40.238;18.256;2022-10-13T09:34:51;6.47;;;4.70;;
44558;SDS011;30270;40.238;18.256;2022-10-13T09:37:23;7.15;;;4.25;;
44558;SDS011;30270;40.238;18.256;2022-10-13T09:40:11;6.10;;;4.75;;
44558;SDS011;30270;40.238;18.256;2022-10-13T09:42:51;8.02;;;4.40;;
44558;SDS011;30270;40.238;18.256;2022-10-13T09:45:20;7.80;;;4.97;;
44558;SDS011;30270;40.238;18.256;2022-10-13T09:47:51;7.18;;;5.00;;
44558;SDS011;30270;40.238;18.256;2022-10-13T09:50:24;6.57;;;4.53;;
44558;SDS011;30270;40.238;18.256;2022-10-13T09:53:08;5.38;;;4.22;;
44558;SDS011;30270;40.238;18.256;2022-10-13T09:55:36;7.00;;;4.97;;
44558;SDS011;30270;40.238;18.256;2022-10-13T09:58:05;6.30;;;4.20;;
44558;SDS011;30270;40.238;18.256;2022-10-13T10:00:41;7.78;;;4.65;;
44558;SDS011;30270;40.238;18.256;2022-10-13T10:03:19;5.53;;;4.53;;
44558;SDS011;30270;40.238;18.256;2022-10-13T10:05:51;9.00;;;4.43;;
44558;SDS011;30270;40.238;18.256;2022-10-13T10:11:32;7.00;;;4.20;;
44558;SDS011;30270;40.238;18.256;2022-10-13T10:16:42;6.68;;;4.40;;
44558;SDS011;30270;40.238;18.256;2022-10-13T10:19:19;8.13;;;5.05;;
44558;SDS011;30270;40.238;18.256;2022-10-13T10:24:43;6.18;;;4.20;;
44558;SDS011;30270;40.238;18.256;2022-10-13T10:30:07;7.57;;;4.60;;
44558;SDS011;30270;40.238;18.256;2022-10-13T10:41:48;9.43;;;5.78;;
44558;SDS011;30270;40.238;18.256;2022-10-13T10:44:45;6.25;;;4.50;;
44558;SDS011;30270;40.238;18.256;2022-10-13T10:47:18;12.50;;;6.13;;
44558;SDS011;30270;40.238;18.256;2022-10-13T10:49:52;7.53;;;5.68;;
44558;SDS011;30270;40.238;18.256;2022-10-13T10:52:33;7.03;;;4.80;;
44558;SDS011;30270;40.238;18.256;2022-10-13T10:55:25;10.30;;;5.20;;
44558;SDS011;30270;40.238;18.256;2022-10-13T11:00:40;9.13;;;6.22;;
44558;SDS011;30270;40.238;18.256;2022-10-13T11:03:32;9.05;;;5.53;;
44558;SDS011;30270;40.238;18.256;2022-10-13T11:08:44;8.20;;;5.80;;
44558;SDS011;30270;40.238;18.256;2022-10-13T11:16:34;9.70;;;5.70;;
44558;SDS011;30270;40.238;18.256;2022-10-13T11:19:28;8.23;;;5.22;;
44558;SDS011;30270;40.238;18.256;2022-10-13T11:35:13;9.50;;;5.30;;
44558;SDS011;30270;40.238;18.256;2022-10-13T11:46:20;8.07;;;6.40;;
44558;SDS011;30270;40.238;18.256;2022-10-13T11:52:12;7.30;;;5.38;;
44558;SDS011;30270;40.238;18.256;2022-10-13T11:54:53;7.95;;;5.10;;
44558;SDS011;30270;40.238;18.256;2022-10-13T11:57:27;7.45;;;5.13;;
44558;SDS011;30270;40.238;18.256;2022-10-13T12:00:01;9.05;;;5.85;;
44558;SDS011;30270;40.238;18.256;2022-10-13T12:02:47;8.52;;;6.00;;
44558;SDS011;30270;40.238;18.256;2022-10-13T12:05:20;12.38;;;6.72;;
44558;SDS011;30270;40.238;18.256;2022-10-13T12:07:52;9.82;;;5.80;;
44558;SDS011;30270;40.238;18.256;2022-10-13T12:10:31;8.13;;;5.80;;
44558;SDS011;30270;40.238;18.256;2022-10-13T12:13:01;12.90;;;6.40;;
44558;SDS011;30270;40.238;18.256;2022-10-13T12:15:35;10.93;;;7.00;;
44558;SDS011;30270;40.238;18.256;2022-10-13T12:18:20;7.55;;;4.88;;
44558;SDS011;30270;40.238;18.256;2022-10-13T12:20:54;9.52;;;6.40;;
44558;SDS011;30270;40.238;18.256;2022-10-13T12:23:24;9.82;;;6.70;;
44558;SDS011;30270;40.238;18.256;2022-10-13T12:25:52;9.15;;;6.05;;
44558;SDS011;30270;40.238;18.256;2022-10-13T12:28:26;11.35;;;6.10;;
44558;SDS011;30270;40.238;18.256;2022-10-13T12:30:57;8.13;;;6.75;;
44558;SDS011;30270;40.238;18.256;2022-10-13T12:33:28;10.10;;;6.20;;
44558;SDS011;30270;40.238;18.256;2022-10-13T12:36:13;13.07;;;6.18;;
44558;SDS011;30270;40.238;18.256;2022-10-13T12:38:47;7.20;;;5.43;;
44558;SDS011;30270;40.238;18.256;2022-10-13T12:41:18;9.63;;;6.00;;
44558;SDS011;30270;40.238;18.256;2022-10-13T12:43:55;8.00;;;6.35;;
44558;SDS011;30270;40.238;18.256;2022-10-13T12:46:36;8.52;;;6.20;;
44558;SDS011;30270;40.238;18.256;2022-10-13T12:49:22;10.55;;;7.07;;
44558;SDS011;30270;40.238;18.256;2022-10-13T12:51:53;11.60;;;7.18;;
44558;SDS011;30270;40.238;18.256;2022-10-13T12:54:34;7.75;;;5.90;;
44558;SDS011;30270;40.238;18.256;2022-10-13T12:57:05;9.52;;;6.35;;
44558;SDS011;30270;40.238;18.256;2022-10-13T12:59:47;9.93;;;6.15;;
44558;SDS011;30270;40.238;18.256;2022-10-13T13:02:19;11.55;;;5.47;;
44558;SDS011;30270;40.238;18.256;2022-10-13T13:04:52;11.70;;;6.43;;
44558;SDS011;30270;40.238;18.256;2022-10-13T13:07:33;9.00;;;6.07;;
44558;SDS011;30270;40.238;18.256;2022-10-13T13:12:35;8.27;;;5.57;;
44558;SDS011;30270;40.238;18.256;2022-10-13T13:23:17;9.00;;;6.03;;
44558;SDS011;30270;40.238;18.256;2022-10-13T13:25:45;9.45;;;6.13;;
44558;SDS011;30270;40.238;18.256;2022-10-13T13:28:14;7.78;;;6.07;;
44558;SDS011;30270;40.238;18.256;2022-10-13T13:30:42;8.07;;;6.72;;
44558;SDS011;30270;40.238;18.256;2022-10-13T13:33:10;9.75;;;6.13;;
44558;SDS011;30270;40.238;18.256;2022-10-13T13:35:38;8.70;;;7.07;;
44558;SDS011;30270;40.238;18.256;2022-10-13T13:38:06;10.65;;;6.22;;
44558;SDS011;30270;40.238;18.256;2022-10-13T13:40:35;10.32;;;6.68;;
44558;SDS011;30270;40.238;18.256;2022-10-13T13:43:03;11.13;;;7.13;;
44558;SDS011;30270;40.238;18.256;2022-10-13T13:45:31;14.25;;;6.82;;
44558;SDS011;30270;40.238;18.256;2022-10-13T13:48:00;11.88;;;7.25;;
44558;SDS011;30270;40.238;18.256;2022-10-13T13:50:32;12.18;;;7.00;;
44558;SDS011;30270;40.238;18.256;2022-10-13T13:53:03;11.15;;;7.35;;
44558;SDS011;30270;40.238;18.256;2022-10-13T13:55:31;9.75;;;7.30;;
44558;SDS011;30270;40.238;18.256;2022-10-13T13:57:59;8.70;;;6.65;;
44558;SDS011;30270;40.238;18.256;2022-10-13T14:00:27;10.57;;;6.82;;
44558;SDS011;30270;40.238;18.256;2022-10-13T14:02:56;10.45;;;7.82;;
44558;SDS011;30270;40.238;18.256;2022-10-13T14:05:24;11.27;;;6.93;;
44558;SDS011;30270;40.238;18.256;2022-10-13T14:07:53;15.48;;;7.60;;
44558;SDS011;30270;40.238;18.256;2022-10-13T14:10:24;10.52;;;6.60;;
44558;SDS011;30270;40.238;18.256;2022-10-13T14:12:51;10.82;;;7.53;;
44558;SDS011;30270;40.238;18.256;2022-10-13T14:15:20;13.38;;;10.15;;
44558;SDS011;30270;40.238;18.256;2022-10-13T14:17:50;21.73;;;12.40;;
44558;SDS011;30270;40.238;18.256;2022-10-13T14:20:19;11.52;;;8.98;;
44558;SDS011;30270;40.238;18.256;2022-10-13T14:22:48;9.85;;;7.20;;
44558;SDS011;30270;40.238;18.256;2022-10-13T14:25:17;12.50;;;7.53;;
44558;SDS011;30270;40.238;18.256;2022-10-13T14:27:46;11.18;;;7.00;;
44558;SDS011;30270;40.238;18.256;2022-10-13T14:30:14;8.73;;;6.57;;
44558;SDS011;30270;40.238;18.256;2022-10-13T14:32:42;11.27;;;6.40;;
44558;SDS011;30270;40.238;18.256;2022-10-13T14:35:10;12.20;;;8.23;;
44558;SDS011;30270;40.238;18.256;2022-10-13T14:37:37;11.98;;;8.35;;
44558;SDS011;30270;40.238;18.256;2022-10-13T14:40:06;9.70;;;6.65;;
44558;SDS011;30270;40.238;18.256;2022-10-13T14:42:34;9.40;;;7.05;;
44558;SDS011;30270;40.238;18.256;2022-10-13T14:45:03;12.25;;;7.47;;
44558;SDS011;30270;40.238;18.256;2022-10-13T14:47:32;9.57;;;6.50;;
44558;SDS011;30270;40.238;18.256;2022-10-13T14:50:00;11.63;;;7.78;;
44558;SDS011;30270;40.238;18.256;2022-10-13T14:52:29;10.90;;;6.53;;
44558;SDS011;30270;40.238;18.256;2022-10-13T14:54:57;11.48;;;7.70;;
44558;SDS011;30270;40.238;18.256;2022-10-13T14:57:25;9.07;;;6.40;;
44558;SDS011;30270;40.238;18.256;2022-10-13T14:59:53;11.40;;;8.45;;
44558;SDS011;30270;40.238;18.256;2022-10-13T15:02:25;11.60;;;7.53;;
44558;SDS011;30270;40.238;18.256;2022-10-13T15:04:53;9.63;;;6.57;;
44558;SDS011;30270;40.238;18.256;2022-10-13T15:07:21;12.05;;;7.47;;
44558;SDS011;30270;40.238;18.256;2022-10-13T15:09:49;11.43;;;8.52;;
44558;SDS011;30270;40.238;18.256;2022-10-13T15:12:26;12.63;;;9.05;;
44558;SDS011;30270;40.238;18.256;2022-10-13T15:14:54;13.27;;;8.40;;
44558;SDS011;30270;40.238;18.256;2022-10-13T15:17:22;9.65;;;7.07;;
44558;SDS011;30270;40.238;18.256;2022-10-13T15:19:52;14.48;;;7.88;;
44558;SDS011;30270;40.238;18.256;2022-10-13T15:22:20;13.77;;;8.02;;
44558;SDS011;30270;40.238;18.256;2022-10-13T15:24:49;11.55;;;8.55;;
44558;SDS011;30270;40.238;18.256;2022-10-13T15:27:17;13.20;;;9.68;;
44558;SDS011;30270;40.238;18.256;2022-10-13T15:29:46;20.17;;;10.10;;
44558;SDS011;30270;40.238;18.256;2022-10-13T15:32:15;17.08;;;9.73;;
44558;SDS011;30270;40.238;18.256;2022-10-13T15:34:53;13.00;;;8.80;;
44558;SDS011;30270;40.238;18.256;2022-10-13T15:37:21;11.88;;;7.90;;
44558;SDS011;30270;40.238;18.256;2022-10-13T15:39:48;10.90;;;8.25;;
44558;SDS011;30270;40.238;18.256;2022-10-13T15:42:19;10.70;;;7.72;;
44558;SDS011;30270;40.238;18.256;2022-10-13T15:44:47;13.68;;;8.95;;
44558;SDS011;30270;40.238;18.256;2022-10-13T15:47:34;11.90;;;8.50;;
44558;SDS011;30270;40.238;18.256;2022-10-13T15:50:02;15.43;;;9.13;;
44558;SDS011;30270;40.238;18.256;2022-10-13T15:52:30;13.80;;;9.35;;
44558;SDS011;30270;40.238;18.256;2022-10-13T15:55:00;14.43;;;9.15;;
44558;SDS011;30270;40.238;18.256;2022-10-13T15:57:29;11.60;;;8.07;;
44558;SDS011;30270;40.238;18.256;2022-10-13T15:59:57;12.27;;;8.50;;
44558;SDS011;30270;40.238;18.256;2022-10-13T16:02:25;13.93;;;8.77;;
44558;SDS011;30270;40.238;18.256;2022-10-13T16:04:53;13.45;;;8.43;;
44558;SDS011;30270;40.238;18.256;2022-10-13T16:07:23;13.57;;;7.93;;
44558;SDS011;30270;40.238;18.256;2022-10-13T16:09:51;14.88;;;9.35;;
44558;SDS011;30270;40.238;18.256;2022-10-13T16:12:19;14.13;;;10.35;;
44558;SDS011;30270;40.238;18.256;2022-10-13T16:14:46;12.77;;;9.30;;
44558;SDS011;30270;40.238;18.256;2022-10-13T16:17:14;12.88;;;9.60;;
44558;SDS011;30270;40.238;18.256;2022-10-13T16:19:43;12.98;;;9.80;;
44558;SDS011;30270;40.238;18.256;2022-10-13T16:22:10;16.35;;;9.32;;
44558;SDS011;30270;40.238;18.256;2022-10-13T16:24:38;14.25;;;8.70;;
44558;SDS011;30270;40.238;18.256;2022-10-13T16:27:06;18.05;;;10.50;;
44558;SDS011;30270;40.238;18.256;2022-10-13T16:29:34;14.88;;;10.35;;
44558;SDS011;30270;40.238;18.256;2022-10-13T16:32:02;16.48;;;10.02;;
44558;SDS011;30270;40.238;18.256;2022-10-13T16:34:30;14.77;;;9.95;;
44558;SDS011;30270;40.238;18.256;2022-10-13T16:36:58;12.23;;;8.80;;
44558;SDS011;30270;40.238;18.256;2022-10-13T16:39:26;14.13;;;8.77;;